createdAt,value
2023-05-29T04:00:29.713Z,2456.00
2023-05-29T04:05:29.572Z,2932.00
2023-05-29T04:10:29.552Z,3424.00
2023-05-29T04:15:29.497Z,3956.00
2023-05-29T04:20:29.503Z,10536.00
2023-05-29T04:25:29.394Z,21472.00
2023-05-29T04:30:29.328Z,23904.00
2023-05-29T04:35:29.255Z,27520.00
2023-05-29T04:40:29.208Z,29472.00
2023-05-29T04:45:29.132Z,32352.00
2023-05-29T04:50:29.081Z,34112.00
2023-05-29T04:55:29.044Z,35232.00
2023-05-29T05:00:29.040Z,40032.00
2023-05-29T05:05:28.938Z,42304.00
2023-05-29T05:10:28.874Z,44064.00
2023-05-29T05:15:28.827Z,44992.00
2023-05-29T05:20:28.839Z,46592.00
2023-05-29T05:25:28.688Z,46080.00
2023-05-29T05:30:28.638Z,46240.00
2023-05-29T05:35:28.617Z,46720.00
2023-05-29T05:40:28.574Z,48224.00
2023-05-29T05:45:28.535Z,47200.00
2023-05-29T05:50:28.446Z,46592.00
2023-05-29T05:55:28.449Z,46304.00
2023-05-29T06:00:28.351Z,47808.00
2023-05-29T06:05:28.267Z,44672.00
2023-05-29T06:10:28.284Z,45088.00
2023-05-29T06:15:28.144Z,45920.00
2023-05-29T06:20:28.274Z,44960.00
2023-05-29T06:25:28.052Z,44320.00
2023-05-29T06:30:28.100Z,41824.00
2023-05-29T06:35:27.976Z,42112.00
2023-05-29T06:40:27.948Z,41440.00
2023-05-29T06:45:27.833Z,38752.00
2023-05-29T06:50:27.787Z,39104.00
2023-05-29T06:55:27.710Z,34496.00
2023-05-29T07:00:27.744Z,35040.00
2023-05-29T07:05:27.882Z,31200.00
2023-05-29T07:10:27.552Z,30784.00
2023-05-29T07:15:27.528Z,25408.00
2023-05-29T07:20:27.529Z,16672.00
2023-05-29T07:25:27.414Z,18432.00
2023-05-29T07:30:27.346Z,17632.00
2023-05-29T07:35:27.296Z,15360.00
2023-05-29T07:40:27.467Z,13916.00
2023-05-29T07:45:27.199Z,13052.00
2023-05-29T07:50:27.144Z,12668.00
2023-05-29T07:55:27.103Z,12296.00
2023-05-29T08:00:27.054Z,12148.00
2023-05-29T08:05:27.075Z,11380.00
2023-05-29T08:10:26.915Z,11272.00
2023-05-29T08:15:26.884Z,11088.00
2023-05-29T08:20:27.064Z,11080.00
2023-05-29T08:25:26.749Z,10456.00
2023-05-29T08:30:26.715Z,9636.00
2023-05-29T08:35:26.669Z,10344.00
2023-05-29T08:40:26.609Z,9992.00
2023-05-29T08:45:26.538Z,10460.00
2023-05-29T08:50:26.478Z,10248.00
2023-05-29T08:55:26.448Z,9376.00
2023-05-29T09:00:26.422Z,9232.00
2023-05-29T09:05:27.689Z,9652.00
2023-05-29T09:10:26.295Z,9144.00
2023-05-29T09:15:26.439Z,9624.00
2023-05-29T09:20:26.271Z,9416.00
2023-05-29T09:25:26.107Z,9372.00
2023-05-29T09:30:26.049Z,8972.00
2023-05-29T09:35:26.036Z,8972.00
2023-05-29T09:40:25.986Z,8816.00
2023-05-29T09:45:25.923Z,8700.00
2023-05-29T09:50:25.854Z,8828.00
2023-05-29T09:55:25.789Z,8600.00
2023-05-29T10:00:25.792Z,8624.00
2023-05-29T10:05:25.682Z,8424.00
2023-05-29T10:10:25.602Z,8436.00
2023-05-29T10:15:32.628Z,8292.00
2023-05-29T10:20:25.535Z,8188.00
2023-05-29T10:25:25.441Z,7852.00
2023-05-29T10:30:25.407Z,7876.00
2023-05-29T10:35:25.342Z,8204.00
2023-05-29T10:40:25.277Z,8288.00
2023-05-29T10:45:25.221Z,8156.00
2023-05-29T10:50:25.166Z,7648.00
2023-05-29T10:55:25.135Z,8976.00
2023-05-29T11:00:25.049Z,9036.00
2023-05-29T11:05:25.061Z,8324.00
2023-05-29T11:10:24.961Z,8352.00
2023-05-29T11:15:24.908Z,8552.00
2023-05-29T11:20:24.864Z,7756.00
2023-05-29T11:25:24.770Z,8236.00
2023-05-29T11:30:24.736Z,8128.00
2023-05-29T11:35:24.755Z,8224.00
2023-05-29T11:40:24.614Z,7968.00
2023-05-29T11:45:24.572Z,7884.00
2023-05-29T11:50:24.495Z,7752.00
2023-05-29T11:55:24.489Z,7744.00
2023-05-29T12:00:24.376Z,7804.00
2023-05-29T12:05:24.370Z,7804.00
2023-05-29T12:10:24.264Z,7924.00
2023-05-29T12:15:24.314Z,7512.00
2023-05-29T12:20:24.196Z,7212.00
2023-05-29T12:25:24.140Z,6948.00
2023-05-29T12:30:33.236Z,6812.00
2023-05-29T12:35:25.022Z,6828.00
2023-05-29T12:40:23.954Z,6676.00
2023-05-29T12:45:23.896Z,6680.00
2023-05-29T12:50:23.824Z,6936.00
2023-05-29T12:55:23.826Z,6908.00
2023-05-29T13:00:23.724Z,6936.00
2023-05-29T13:05:23.677Z,7064.00
2023-05-29T13:10:23.629Z,7224.00
2023-05-29T13:15:23.584Z,7084.00
2023-05-29T13:20:23.625Z,7368.00
2023-05-29T13:25:23.452Z,7436.00
2023-05-29T13:30:23.500Z,7244.00
2023-05-29T13:35:23.366Z,7612.00
2023-05-29T13:40:23.283Z,7496.00
2023-05-29T13:45:23.332Z,6960.00
2023-05-29T13:50:23.200Z,6776.00
2023-05-29T13:55:23.146Z,6604.00
2023-05-29T14:00:23.060Z,6320.00
2023-05-29T14:05:23.100Z,6200.00
2023-05-29T14:10:22.963Z,6200.00
2023-05-29T14:15:22.912Z,5528.00
2023-05-29T14:20:22.874Z,5572.00
2023-05-29T14:25:22.778Z,6044.00
2023-05-29T14:30:22.727Z,5988.00
2023-05-29T14:35:22.706Z,6072.00
2023-05-29T14:40:22.623Z,6012.00
2023-05-29T14:45:22.562Z,6020.00
2023-05-29T14:50:22.509Z,5820.00
2023-05-29T14:55:22.480Z,5480.00
2023-05-29T15:00:22.406Z,5524.00
2023-05-29T15:05:22.358Z,5604.00
2023-05-29T15:10:22.292Z,5280.00
2023-05-29T15:15:23.596Z,5060.00
2023-05-29T15:20:22.194Z,4648.00
2023-05-29T15:25:22.145Z,4252.00
2023-05-29T15:30:22.085Z,4180.00
2023-05-29T15:35:22.053Z,4404.00
2023-05-29T15:40:21.971Z,4424.00
2023-05-29T15:45:21.923Z,4748.00
2023-05-29T15:50:21.867Z,4540.00
2023-05-29T15:55:21.837Z,4584.00
2023-05-29T16:00:21.794Z,4568.00
2023-05-29T16:05:21.721Z,4560.00
2023-05-29T16:10:21.656Z,4508.00
2023-05-29T16:15:28.672Z,4312.00
2023-05-29T16:20:21.609Z,4288.00
2023-05-29T16:25:21.551Z,3860.00
2023-05-29T16:30:21.447Z,4144.00
2023-05-29T16:35:21.426Z,4112.00
2023-05-29T16:40:21.347Z,3944.00
2023-05-29T16:45:21.321Z,3904.00
2023-05-29T16:50:22.064Z,3844.00
2023-05-29T16:55:21.210Z,3648.00
2023-05-29T17:00:21.128Z,3612.00
2023-05-29T17:05:21.079Z,3484.00
2023-05-29T17:10:21.015Z,3368.00
2023-05-29T17:15:20.980Z,3272.00
2023-05-29T17:20:20.945Z,3116.00
2023-05-29T17:25:20.865Z,2980.00
2023-05-29T17:30:20.800Z,2652.00
2023-05-29T17:35:20.761Z,2508.00
2023-05-29T17:40:20.681Z,2428.00
2023-05-29T17:45:20.630Z,2372.00
2023-05-29T17:50:20.581Z,2344.00
2023-05-29T17:55:20.612Z,2312.00
2023-05-29T18:00:20.481Z,2232.00
2023-05-29T18:05:20.439Z,2128.00
2023-05-29T18:10:20.358Z,2020.00
2023-05-29T18:15:20.324Z,1880.00
2023-05-29T18:20:20.259Z,1804.00
2023-05-29T18:25:20.196Z,1724.00
2023-05-29T18:30:20.159Z,1644.00
2023-05-29T18:35:20.111Z,1560.00
2023-05-29T18:40:20.030Z,1440.00
2023-05-29T18:45:19.973Z,1328.00
2023-05-29T18:50:20.029Z,1136.00
2023-05-29T18:55:19.910Z,960.00
2023-05-29T19:00:19.808Z,800.00
2023-05-29T19:05:19.753Z,628.00
2023-05-29T19:10:19.694Z,488.00
2023-05-29T19:15:19.665Z,396.00
2023-05-29T19:20:19.616Z,312.00
2023-05-29T19:25:19.543Z,236.00
2023-05-29T19:30:19.481Z,168.00
2023-05-29T19:35:19.446Z,112.00
2023-05-29T19:40:19.362Z,76.00
2023-05-29T19:45:19.309Z,44.00
2023-05-29T19:50:19.254Z,24.00
2023-05-29T19:55:19.301Z,16.00
2023-05-29T20:00:19.148Z,8.00
2023-05-29T20:05:19.085Z,4.00
2023-05-29T20:10:19.041Z,0.00
2023-05-29T20:15:19.005Z,0.00
2023-05-29T20:20:18.934Z,0.00
2023-05-29T20:25:18.875Z,0.00
2023-05-29T20:30:18.823Z,0.00
2023-05-29T20:35:18.782Z,0.00
2023-05-29T20:40:18.710Z,0.00
2023-05-29T20:45:18.657Z,0.00
2023-05-29T20:50:18.591Z,0.00
2023-05-29T20:55:18.558Z,0.00
2023-05-29T21:00:18.487Z,0.00
2023-05-29T21:05:18.437Z,0.00
2023-05-29T21:10:18.376Z,0.00
2023-05-29T21:15:18.335Z,0.00
2023-05-29T21:20:18.283Z,0.00
2023-05-29T21:25:18.221Z,0.00
2023-05-29T21:30:18.171Z,0.00
2023-05-29T21:35:18.132Z,0.00
2023-05-29T21:40:18.066Z,0.00
2023-05-29T21:45:17.995Z,0.00
2023-05-29T21:50:17.937Z,0.00
2023-05-29T21:55:17.898Z,0.00
2023-05-29T22:00:17.826Z,0.00
2023-05-29T22:05:17.775Z,0.00
2023-05-29T22:10:17.753Z,0.00
2023-05-29T22:15:24.723Z,0.00
2023-05-29T22:20:17.742Z,0.00
2023-05-29T22:25:17.549Z,0.00
2023-05-29T22:30:17.498Z,0.00
2023-05-29T22:35:17.473Z,0.00
2023-05-29T22:40:17.391Z,0.00
2023-05-29T22:45:17.341Z,0.00
2023-05-29T22:50:17.316Z,0.00
2023-05-29T22:55:17.253Z,0.00
2023-05-29T23:00:17.187Z,0.00
2023-05-29T23:05:17.112Z,0.00
2023-05-29T23:10:17.068Z,0.00
2023-05-29T23:15:17.104Z,0.00
2023-05-29T23:20:17.040Z,0.00
2023-05-29T23:25:16.896Z,0.00
